Date,TemperatureHighF,TemperatureAvgF,TemperatureLowF,DewpointHighF,DewpointAvgF,DewpointLowF,HumidityHigh,HumidityAvg,HumidityLow,PressureMaxIn,PressureMinIn,WindSpeedMaxMPH,WindSpeedAvgMPH,GustSpeedMaxMPH,PrecipitationSumIn
2013-3-1,27.5,21.5,7.4,19.4,16.0,3.6,92,79,70,30.39,30.24,17,6,17,0.00
2013-3-2,25.7,14.3,-4.9,17.8,8.4,-8.4,91,78,65,30.40,30.19,9,1,9,0.00
2013-3-3,32.8,26.2,21.3,17.5,14.8,11.7,78,63,43,30.19,29.96,21,4,21,0.00
2013-3-4,28.7,25.5,23.5,23.3,21.0,17.1,93,84,62,30.03,29.92,22,5,22,0.00
2013-3-5,29.4,25.4,21.6,26.0,23.1,17.9,94,91,83,30.34,29.97,19,6,19,0.02
2013-3-6,26.5,21.3,3.1,21.8,17.2,0.1,98,84,76,30.44,30.34,13,2,13,0.00
2013-3-7,31.2,22.6,-0.6,21.4,16.3,-3.8,92,77,64,30.42,30.30,17,4,17,0.01
2013-3-8,36.8,26.2,10.7,31.0,22.2,8.4,94,85,73,30.34,30.08,14,2,14,0.02
2013-3-9,37.3,35.5,33.8,36.5,34.3,30.7,97,95,83,30.09,29.67,16,3,16,0.48
2013-3-10,35.0,34.9,34.8,33.5,33.1,32.7,95,93,92,29.82,29.80,21,11,21,0.00
2013-3-11,29.6,26.3,22.5,23.4,20.9,17.0,86,80,72,29.91,29.77,16,7,26,0.00
2013-3-12,28.3,23.5,18.9,21.0,17.3,14.0,84,77,62,30.25,29.85,29,7,29,0.00
2013-3-13,28.7,19.6,8.8,20.5,14.7,6.1,90,81,66,30.42,30.25,12,2,13,0.00
2013-3-14,38.2,30.0,24.5,28.9,25.1,20.4,93,82,68,30.25,30.02,13,2,13,0.02
2013-3-15,33.8,30.6,24.2,31.5,28.4,22.2,94,91,87,30.02,29.83,20,7,20,0.11
2013-3-16,24.2,18.0,9.1,22.2,11.7,3.3,92,76,68,30.29,29.93,17,6,20,0.00
2013-3-17,27.9,16.3,2.7,22.2,8.4,-2.3,81,71,60,30.31,29.84,21,6,21,0.00
2013-3-18,31.9,21.5,11.3,30.5,17.3,5.9,96,84,74,29.87,29.60,30,10,32,0.00
2013-3-19,19.5,12.1,6.2,7.3,3.5,0.4,80,68,52,30.27,29.87,29,11,29,0.00
2013-3-20,19.1,11.7,6.3,7.6,2.7,-1.4,73,67,57,30.31,30.18,27,9,27,0.00
2013-3-21,25.7,12.5,-4.9,12.2,4.5,-8.5,88,71,54,30.20,30.10,10,1,10,0.00
2013-3-22,38.2,17.6,-1.9,18.8,9.7,-5.3,89,73,43,30.15,30.08,10,1,10,0.00
2013-3-23,37.2,24.6,8.9,23.8,17.2,6.3,91,74,50,30.20,30.11,11,1,11,0.00
2013-3-24,33.0,28.4,24.6,27.6,23.0,20.8,94,80,68,30.14,30.00,21,7,21,0.01
2013-3-25,36.1,30.3,24.5,27.5,20.6,17.6,94,67,52,30.26,30.08,22,9,23,0.00
2013-3-26,37.0,26.5,15.6,24.4,19.3,12.7,92,75,55,30.33,30.26,11,1,11,0.00
2013-3-27,39.2,26.3,10.5,23.6,18.0,8.1,93,73,50,30.38,30.33,8,1,10,0.00
2013-3-28,42.3,30.1,14.1,29.9,22.8,12.0,94,76,56,30.36,30.27,17,2,17,0.00
2013-3-29,47.6,38.9,30.3,39.7,33.7,25.8,88,82,71,30.29,30.01,14,2,14,0.01
2013-3-30,46.0,40.3,33.3,41.2,36.8,31.0,94,87,79,30.02,29.86,21,3,21,0.18
2013-3-31,36.1,32.7,21.8,33.2,26.5,15.4,96,79,57,30.14,29.79,31,9,31,0.01